TimeCST,TemperatureF,Dew PointF,Humidity,Sea Level PressureIn,VisibilityMPH,Wind Direction,Wind SpeedMPH,Gust SpeedMPH,PrecipitationIn,Events,Conditions,WindDirDegrees,DateUTC
12:15 AM,15.4,13.6,93,30.12,2.5,South,10.4,-,N/A,Snow,Light Snow,180,2013-02-02 06:15:00
12:35 AM,15.8,13.8,92,30.11,10.0,South,11.5,-,N/A,Snow,Light Snow,180,2013-02-02 06:35:00
12:55 AM,16.2,13.8,90,30.09,10.0,South,12.7,-,N/A,,Overcast,180,2013-02-02 06:55:00
1:15 AM,16.5,14.0,90,30.09,10.0,South,10.4,-,N/A,,Overcast,180,2013-02-02 07:15:00
1:35 AM,16.7,14.5,91,30.08,5.0,South,11.5,-,N/A,Snow,Light Snow,180,2013-02-02 07:35:00
1:55 AM,17.4,15.1,91,30.07,10.0,South,10.4,-,N/A,,Overcast,190,2013-02-02 07:55:00
2:15 AM,18.1,15.8,91,30.06,10.0,SSW,13.8,-,N/A,,Overcast,200,2013-02-02 08:15:00
2:35 AM,18.3,16.5,93,30.06,10.0,South,10.4,-,N/A,Snow,Light Snow,190,2013-02-02 08:35:00
2:55 AM,18.9,17.2,93,30.04,3.0,SSW,10.4,-,N/A,Snow,Light Snow,200,2013-02-02 08:55:00
3:15 AM,19.0,17.6,94,30.03,7.0,South,8.1,-,N/A,Snow,Light Snow,190,2013-02-02 09:15:00
3:35 AM,19.4,18.0,94,30.03,7.0,South,8.1,-,N/A,Snow,Light Snow,190,2013-02-02 09:35:00
3:55 AM,19.8,18.3,94,30.02,7.0,SSW,8.1,-,N/A,Snow,Light Snow,200,2013-02-02 09:55:00
4:15 AM,20.3,18.9,94,30.01,5.0,SSW,5.8,-,N/A,Snow,Light Snow,200,2013-02-02 10:15:00
4:35 AM,20.8,19.4,94,30.01,5.0,SSW,6.9,-,N/A,Snow,Light Snow,200,2013-02-02 10:35:00
4:55 AM,21.2,19.4,93,30.00,4.0,SSW,6.9,-,N/A,Snow,Light Snow,210,2013-02-02 10:55:00
5:15 AM,21.7,20.1,93,30.00,7.0,SW,9.2,-,N/A,Snow,Light Snow,220,2013-02-02 11:15:00
5:35 AM,21.9,20.3,93,29.99,10.0,SW,9.2,-,N/A,,Overcast,220,2013-02-02 11:35:00
5:55 AM,22.1,20.3,93,29.99,10.0,SW,10.4,-,N/A,,Overcast,230,2013-02-02 11:55:00
6:15 AM,22.1,20.5,93,29.99,10.0,SW,10.4,-,N/A,,Overcast,230,2013-02-02 12:15:00
6:35 AM,22.1,20.8,95,29.99,10.0,WSW,10.4,-,N/A,,Overcast,240,2013-02-02 12:35:00
6:55 AM,22.3,21.0,95,29.99,10.0,WSW,10.4,-,N/A,,Overcast,240,2013-02-02 12:55:00
7:15 AM,22.5,21.2,95,30.00,10.0,WSW,10.4,-,N/A,,Overcast,250,2013-02-02 13:15:00
7:35 AM,22.6,21.6,96,30.00,10.0,WSW,9.2,-,N/A,,Overcast,250,2013-02-02 13:35:00
7:55 AM,22.8,21.7,96,30.00,5.0,West,8.1,-,N/A,Snow,Light Snow,260,2013-02-02 13:55:00
8:15 AM,23.0,21.9,96,30.01,1.2,WNW,6.9,-,N/A,Snow,Light Snow,300,2013-02-02 14:15:00
8:35 AM,23.0,21.2,93,30.01,1.8,NW,8.1,-,N/A,Snow,Light Snow,320,2013-02-02 14:35:00
8:55 AM,20.7,18.3,91,30.02,1.2,North,15.0,-,N/A,Snow,Light Snow,350,2013-02-02 14:55:00
9:15 AM,18.5,16.0,90,30.02,1.2,North,18.4,-,N/A,Snow,Light Snow,350,2013-02-02 15:15:00
9:35 AM,16.0,12.9,88,30.03,2.0,North,19.6,-,N/A,Snow,Light Snow,360,2013-02-02 15:35:00
9:55 AM,14.0,9.7,83,30.05,4.0,North,19.6,25.3,N/A,Snow,Light Snow,360,2013-02-02 15:55:00
10:15 AM,12.9,8.6,83,30.05,7.0,NNE,17.3,21.9,N/A,,Overcast,20,2013-02-02 16:15:00
10:35 AM,12.2,7.7,82,30.06,10.0,NNE,12.7,-,N/A,,Overcast,20,2013-02-02 16:35:00
10:55 AM,12.6,8.4,83,30.07,7.0,North,11.5,-,N/A,Snow,Light Snow,10,2013-02-02 16:55:00
11:15 AM,12.2,7.7,82,30.06,5.0,North,15.0,-,N/A,Snow,Light Snow,350,2013-02-02 17:15:00
11:35 AM,12.4,7.7,82,30.06,7.0,North,15.0,-,N/A,Snow,Light Snow,360,2013-02-02 17:35:00
11:55 AM,12.7,7.9,81,30.06,7.0,North,12.7,-,N/A,Snow,Light Snow,350,2013-02-02 17:55:00
12:15 PM,12.7,7.3,79,30.06,10.0,North,11.5,-,N/A,,Overcast,350,2013-02-02 18:15:00
12:35 PM,12.9,7.5,79,30.06,10.0,NNW,11.5,-,N/A,,Overcast,340,2013-02-02 18:35:00
12:55 PM,12.2,5.9,76,30.06,10.0,North,13.8,-,N/A,,Overcast,350,2013-02-02 18:55:00
1:15 PM,13.1,6.3,74,30.06,10.0,North,13.8,-,N/A,,Scattered Clouds,350,2013-02-02 19:15:00
1:35 PM,12.9,5.4,72,30.06,10.0,NNW,11.5,-,N/A,,Scattered Clouds,340,2013-02-02 19:35:00
1:55 PM,13.3,5.9,72,30.07,10.0,NNW,12.7,-,N/A,,Clear,330,2013-02-02 19:55:00
2:15 PM,13.1,5.2,71,30.07,10.0,NW,12.7,-,N/A,,Clear,320,2013-02-02 20:15:00
2:35 PM,12.9,5.2,71,30.07,10.0,NW,12.7,-,N/A,,Clear,320,2013-02-02 20:35:00
2:55 PM,12.2,5.0,73,30.08,10.0,NNW,11.5,-,N/A,,Clear,330,2013-02-02 20:55:00
3:15 PM,12.2,4.1,70,30.09,10.0,NNW,13.8,-,N/A,,Clear,330,2013-02-02 21:15:00
3:35 PM,12.6,5.4,73,30.09,10.0,NNW,12.7,-,N/A,,Clear,330,2013-02-02 21:35:00
3:55 PM,12.0,4.6,72,30.09,10.0,NW,10.4,-,N/A,,Clear,310,2013-02-02 21:55:00
4:15 PM,11.3,4.1,73,30.09,10.0,NNW,10.4,-,N/A,,Clear,330,2013-02-02 22:15:00
4:35 PM,11.3,4.1,73,30.09,10.0,NNW,9.2,-,N/A,,Scattered Clouds,340,2013-02-02 22:35:00
4:55 PM,11.3,3.9,72,30.09,10.0,NNW,10.4,-,N/A,,Mostly Cloudy,340,2013-02-02 22:55:00
5:15 PM,11.3,4.1,73,30.09,10.0,NNW,9.2,-,N/A,,Overcast,330,2013-02-02 23:15:00
5:35 PM,11.1,4.1,73,30.10,10.0,NNW,6.9,-,N/A,,Overcast,330,2013-02-02 23:35:00
5:55 PM,10.9,4.3,75,30.11,10.0,NNW,4.6,-,N/A,,Overcast,340,2013-02-02 23:55:00
6:15 PM,11.3,4.8,75,30.11,10.0,NNW,5.8,-,N/A,,Overcast,330,2013-02-03 00:15:00
6:35 PM,10.9,3.9,73,30.11,10.0,NNW,6.9,-,N/A,,Overcast,340,2013-02-03 00:35:00
6:55 PM,10.9,4.3,75,30.10,10.0,NNW,4.6,-,N/A,,Overcast,340,2013-02-03 00:55:00
7:15 PM,10.8,4.5,76,30.10,10.0,North,5.8,-,N/A,,Overcast,10,2013-02-03 01:15:00
7:35 PM,10.8,4.3,75,30.10,10.0,North,3.5,-,N/A,,Overcast,360,2013-02-03 01:35:00
7:55 PM,10.4,4.1,76,30.09,10.0,North,4.6,-,N/A,,Mostly Cloudy,360,2013-02-03 01:55:00
8:15 PM,10.4,4.6,78,30.09,10.0,North,3.5,-,N/A,,Overcast,360,2013-02-03 02:15:00
8:35 PM,10.2,3.9,76,30.08,10.0,Calm,Calm,-,N/A,,Overcast,0,2013-02-03 02:35:00
8:55 PM,8.6,3.0,78,30.08,10.0,Calm,Calm,-,N/A,,Scattered Clouds,0,2013-02-03 02:55:00
9:15 PM,7.3,3.7,85,30.07,10.0,Calm,Calm,-,N/A,,Clear,0,2013-02-03 03:15:00
9:35 PM,4.6,-0.4,80,30.06,10.0,ESE,3.5,-,N/A,,Clear,120,2013-02-03 03:35:00
9:55 PM,3.2,0.5,89,30.04,10.0,SE,6.9,-,N/A,,Mostly Cloudy,130,2013-02-03 03:55:00
10:15 PM,6.1,3.0,87,30.05,10.0,Calm,Calm,-,N/A,,Overcast,0,2013-02-03 04:15:00
10:35 PM,6.8,3.7,87,30.05,10.0,Calm,Calm,-,N/A,,Overcast,0,2013-02-03 04:35:00
10:55 PM,7.5,4.3,87,30.04,10.0,Calm,Calm,-,N/A,,Overcast,0,2013-02-03 04:55:00
11:15 PM,8.2,5.0,87,30.04,10.0,SSW,3.5,-,N/A,,Overcast,200,2013-02-03 05:15:00
11:35 PM,8.2,5.0,87,30.03,10.0,South,4.6,-,N/A,,Overcast,170,2013-02-03 05:35:00
11:55 PM,9.3,5.7,85,30.02,10.0,South,3.5,-,N/A,Snow,Light Snow,170,2013-02-03 05:55:00